To NAV CANADA Home Page Login to a new session Search on AWWS site Disclaimer Vers la page française équivalente Tips FAQ What's new on the site To the Forecasts and Observations / NOTAM section To "File a Flight Plan" website Publications and other links Update of the User's profile FIC Telephone Numbers My Weather Data Folder Route Weather Data Regional Weather Data Local Weather Data To the Forecasts and Observations / NOTAM section
Request Generated 08/19/2022 at 02:52:44 UTC . Weather information available at that time is displayed.

METAR/TAF

SANDY LAKE/ON    (show WxCam)

METAR CZSJ 190200Z AUTO 03004KT 9SM BKN076 BKN088 OVC120 21/16 A2992 RMK SLP137 DENSITY ALT 1900FT=
METAR CZSJ 190100Z AUTO 01004KT 330V050 9SM OVC110 22/17 A2989 RMK LTNG DIST E SE SLP129 DENSITY ALT 2100FT=
METAR CZSJ 190000Z AUTO 01005KT 330V040 9SM FEW041 BKN110 23/17 A2989 RMK SLP126 DENSITY ALT 2100FT=

*** REMARK        : Forecast period has ended; this was the last TAF issued
*** REMARQUE : La période de prévision est échue; ceci était le dernier TAF qui a été émis
TAF AMD CZSJ 182115Z 1821/1822 VRB03KT P6SM BKN140 TEMPO 1821/1822
2SM TSRA BR BKN020 OVC040CB
RMK FCST BASED ON AUTO OBS. NXT FCST BY 191000Z=
Your time UTC time
Weather data provided by Environment Canada and NAV CANADA